首页
METAR-TAF:

METAR-TAF

机场 :

洛迦诺, 瑞士

纬度: 46-09-55N, 经度: 8-52-40E, 海拔: 198米

当前天气观测

该预报发布于33分钟前的02:20 UTC
静风
温度 5°C
湿度 100%
气压 1007 hPa
能见度10公里或以上
少量云层高于7300英尺
多云层高于8600英尺
多云层高于10000英尺

METAR: LSZL 170220Z AUTO 00000KT 9999NDV FEW073 BKN086 BKN100 05/05 Q1007 RMK

时间: 03:53 (02:53 UTC)

预报

该预报发布于9小时和28分钟前的17:25 UTC
预报有效从15日的 18点(UTC)到 16日的 03点(UTC)
风速3节,风向多变
能見度: 6000
少量云层高于1200英尺
多云层高于3500英尺
小阵雨
短暂存在
从 15日的 18点(UTC)到 15日的 19点(UTC)
能見度: 4500
阵雨

TAF: LSZL 151725Z 1518/1603 VRB03KT 6000 -SHRA FEW012 BKN035 TEMPO 1518/1519 4500 SHRA

超过4000个机场的气象观测和天气预报(METAR&TAF报告)。

可查询的气象台以黄色和红色小点在地图上表示。

将鼠标移到小点上方,可查看气象台名称。

然后点击查看天气观测和预报。

如需切换地图:点击带黑十字的绿色按钮放大地图;点击带横线的绿色按钮缩小地图;或者点击绿色箭头查看邻近地区的地图。


METAR-TAF: